createdAt,value
2022-08-17T00:02:26.467Z,18.68
2022-08-17T00:04:55.482Z,18.69
2022-08-17T00:07:23.363Z,18.66
2022-08-17T00:09:50.786Z,18.64
2022-08-17T00:12:41.605Z,18.60
2022-08-17T00:15:10.647Z,18.57
2022-08-17T00:17:38.630Z,18.61
2022-08-17T00:20:07.209Z,18.61
2022-08-17T00:22:36.756Z,18.60
2022-08-17T00:25:08.784Z,18.62
2022-08-17T00:27:37.072Z,18.47
2022-08-17T00:30:10.129Z,18.50
2022-08-17T00:33:12.286Z,18.57
2022-08-17T00:35:34.335Z,18.58
2022-08-17T00:38:04.322Z,18.52
2022-08-17T00:40:40.611Z,18.62
2022-08-17T00:43:20.654Z,18.64
2022-08-17T00:45:49.053Z,18.64
2022-08-17T00:48:28.845Z,18.62
2022-08-17T00:51:17.562Z,18.63
2022-08-17T00:53:51.472Z,18.64
2022-08-17T00:56:24.801Z,18.53
2022-08-17T00:58:53.043Z,18.63
2022-08-17T01:01:21.513Z,18.58
2022-08-17T01:03:52.135Z,18.63
2022-08-17T01:06:20.495Z,18.67
2022-08-17T01:08:52.289Z,18.61
2022-08-17T01:11:26.587Z,18.54
2022-08-17T01:13:54.083Z,18.53
2022-08-17T01:16:40.099Z,18.52
2022-08-17T01:19:32.315Z,18.52
2022-08-17T01:22:11.358Z,18.53
2022-08-17T01:24:42.200Z,18.43
2022-08-17T01:27:10.809Z,18.38
2022-08-17T01:29:40.505Z,18.39
2022-08-17T01:32:08.871Z,18.39
2022-08-17T01:34:42.472Z,18.35
2022-08-17T01:37:12.753Z,18.33
2022-08-17T01:39:50.330Z,18.46
2022-08-17T01:42:37.431Z,18.43
2022-08-17T01:45:23.165Z,18.44
2022-08-17T01:47:51.731Z,18.45
2022-08-17T01:50:26.482Z,18.44
2022-08-17T01:52:57.723Z,18.44
2022-08-17T01:55:31.475Z,18.40
2022-08-17T01:57:59.549Z,18.43
2022-08-17T02:00:59.641Z,18.31
2022-08-17T02:03:21.979Z,18.35
2022-08-17T02:05:50.063Z,18.39
2022-08-17T02:08:19.926Z,18.33
2022-08-17T02:10:49.129Z,18.27
2022-08-17T02:13:17.154Z,18.29
2022-08-17T02:15:44.555Z,18.27
2022-08-17T02:18:14.906Z,18.32
2022-08-17T02:20:43.033Z,18.33
2022-08-17T02:23:12.040Z,18.35
2022-08-17T02:25:40.709Z,18.32
2022-08-17T02:28:08.252Z,18.33
2022-08-17T02:31:00.039Z,18.27
2022-08-17T02:33:23.681Z,18.28
2022-08-17T02:36:10.416Z,18.26
2022-08-17T02:38:38.575Z,18.26
2022-08-17T02:41:06.336Z,18.20
2022-08-17T02:43:33.859Z,18.21
2022-08-17T02:46:01.611Z,18.29
2022-08-17T02:48:31.139Z,18.31
2022-08-17T02:51:00.442Z,18.33
2022-08-17T02:53:29.765Z,18.35
2022-08-17T02:56:04.165Z,18.32
2022-08-17T02:58:35.430Z,18.27
2022-08-17T03:01:05.922Z,18.28
2022-08-17T03:03:34.048Z,18.22
2022-08-17T03:06:01.855Z,18.25
2022-08-17T03:08:29.839Z,18.23
2022-08-17T03:10:57.907Z,18.19
2022-08-17T03:13:27.738Z,18.17
2022-08-17T03:15:55.322Z,18.14
2022-08-17T03:18:24.638Z,18.03
2022-08-17T03:20:55.532Z,17.99
2022-08-17T03:23:23.958Z,18.05
2022-08-17T03:25:53.821Z,18.03
2022-08-17T03:28:22.727Z,18.03
2022-08-17T03:30:51.507Z,18.06
2022-08-17T03:33:20.185Z,18.03
2022-08-17T03:35:47.843Z,18.08
2022-08-17T03:38:17.332Z,18.07
2022-08-17T03:40:59.010Z,18.10
2022-08-17T03:43:32.088Z,18.08
2022-08-17T03:46:34.003Z,18.16
2022-08-17T03:49:26.049Z,18.23
2022-08-17T03:52:14.035Z,18.29
2022-08-17T03:55:00.883Z,18.40
2022-08-17T03:57:28.858Z,18.44
2022-08-17T03:59:56.360Z,18.47
2022-08-17T04:02:26.430Z,18.52
2022-08-17T04:04:54.625Z,18.56
2022-08-17T04:07:24.082Z,18.63
2022-08-17T04:09:51.785Z,18.69
2022-08-17T04:12:23.324Z,18.89
2022-08-17T04:14:53.401Z,18.95
2022-08-17T04:17:24.452Z,19.04
2022-08-17T04:19:52.168Z,19.11
2022-08-17T04:22:31.291Z,19.11
2022-08-17T04:25:14.862Z,19.18
2022-08-17T04:27:42.413Z,19.26
2022-08-17T04:30:10.593Z,19.37
2022-08-17T04:33:07.268Z,19.41
2022-08-17T04:35:41.258Z,19.56
2022-08-17T04:38:10.109Z,19.64
2022-08-17T04:40:56.643Z,19.64
2022-08-17T04:43:26.051Z,19.77
2022-08-17T04:45:57.365Z,19.85
2022-08-17T04:48:36.981Z,19.99
2022-08-17T04:51:13.411Z,20.15
2022-08-17T04:53:44.599Z,20.27
2022-08-17T04:56:17.029Z,20.33
2022-08-17T04:58:48.444Z,20.46
2022-08-17T05:01:23.599Z,20.58
2022-08-17T05:03:56.346Z,20.70
2022-08-17T05:06:24.130Z,20.90
2022-08-17T05:08:51.976Z,20.98
2022-08-17T05:11:19.431Z,21.10
2022-08-17T05:13:50.400Z,21.22
2022-08-17T05:16:19.059Z,21.28
2022-08-17T05:18:46.788Z,21.47
2022-08-17T05:21:15.032Z,21.55
2022-08-17T05:23:43.515Z,21.72
2022-08-17T05:26:26.495Z,21.84
2022-08-17T05:28:59.425Z,21.76
2022-08-17T05:31:28.439Z,22.02
2022-08-17T05:33:56.240Z,22.23
2022-08-17T05:36:43.660Z,22.38
2022-08-17T05:39:16.522Z,22.41
2022-08-17T05:41:46.872Z,22.55
2022-08-17T05:44:14.864Z,22.77
2022-08-17T05:46:44.358Z,23.12
2022-08-17T05:49:13.252Z,23.11
2022-08-17T05:51:56.121Z,23.07
2022-08-17T05:54:33.977Z,22.91
2022-08-17T05:57:29.180Z,23.06
2022-08-17T06:00:09.928Z,23.44
2022-08-17T06:03:02.339Z,23.80
2022-08-17T06:05:55.400Z,23.94
2022-08-17T06:08:41.350Z,23.80
2022-08-17T06:11:22.688Z,23.77
2022-08-17T06:14:25.721Z,24.03
2022-08-17T06:17:02.598Z,24.02
2022-08-17T06:19:56.478Z,24.09
2022-08-17T06:22:27.517Z,24.10
2022-08-17T06:25:01.371Z,24.18
2022-08-17T06:27:54.295Z,24.23
2022-08-17T06:30:27.571Z,24.43
2022-08-17T06:32:59.722Z,24.69
2022-08-17T06:35:38.993Z,24.78
2022-08-17T06:38:10.495Z,24.77
2022-08-17T06:41:26.191Z,24.82
2022-08-17T06:44:47.555Z,25.00
2022-08-17T06:47:41.439Z,25.21
2022-08-17T06:50:14.657Z,25.57
2022-08-17T06:52:54.480Z,25.89
2022-08-17T06:56:02.335Z,25.99
2022-08-17T06:58:31.620Z,26.03
2022-08-17T07:01:10.050Z,25.93
2022-08-17T07:03:56.565Z,26.15
2022-08-17T07:06:37.083Z,26.44
2022-08-17T07:09:33.865Z,26.43
2022-08-17T07:12:22.304Z,26.69
2022-08-17T07:14:53.636Z,26.91
2022-08-17T07:17:22.742Z,27.10
2022-08-17T07:20:15.092Z,27.20
2022-08-17T07:23:02.096Z,27.68
2022-08-17T07:25:30.925Z,27.38
2022-08-17T07:28:04.266Z,27.10
2022-08-17T07:30:47.293Z,26.82
2022-08-17T07:33:20.407Z,26.67
2022-08-17T07:35:50.214Z,27.01
2022-08-17T07:38:24.989Z,26.97
2022-08-17T07:40:57.897Z,27.09
2022-08-17T07:43:29.656Z,27.27
2022-08-17T07:46:25.328Z,27.39
2022-08-17T07:48:56.241Z,27.44
2022-08-17T07:51:36.607Z,27.53
2022-08-17T07:54:24.785Z,27.69
2022-08-17T07:57:15.581Z,27.72
2022-08-17T08:00:16.117Z,27.39
2022-08-17T08:02:46.304Z,27.58
2022-08-17T08:05:49.343Z,27.78
2022-08-17T08:08:25.335Z,28.00
2022-08-17T08:11:12.633Z,28.09
2022-08-17T08:13:43.973Z,28.29
2022-08-17T08:16:22.836Z,28.31
2022-08-17T08:18:56.726Z,28.36
2022-08-17T08:21:42.263Z,28.22
2022-08-17T08:24:31.445Z,28.26
2022-08-17T08:27:02.649Z,27.83
2022-08-17T08:29:48.961Z,27.49
2022-08-17T08:32:25.277Z,27.01
2022-08-17T08:35:06.044Z,26.91
2022-08-17T08:38:15.328Z,27.17
2022-08-17T08:40:54.858Z,27.18
2022-08-17T08:44:00.803Z,26.94
2022-08-17T08:46:36.094Z,26.81
2022-08-17T08:49:59.492Z,27.11
2022-08-17T08:52:44.246Z,27.18
2022-08-17T08:55:28.845Z,26.88
2022-08-17T08:58:06.297Z,26.47
2022-08-17T09:00:39.143Z,26.07
2022-08-17T09:03:51.504Z,26.01
2022-08-17T09:06:44.431Z,26.35
2022-08-17T09:09:27.738Z,26.55
2022-08-17T09:12:06.958Z,26.65
2022-08-17T09:14:46.501Z,26.54
2022-08-17T09:18:14.908Z,26.83
2022-08-17T09:21:18.166Z,26.96
2022-08-17T09:23:52.121Z,26.96
2022-08-17T09:26:30.655Z,26.93
2022-08-17T09:29:02.282Z,26.99
2022-08-17T09:31:47.029Z,27.18
2022-08-17T09:34:28.192Z,27.32
2022-08-17T09:37:38.109Z,27.24
2022-08-17T09:40:34.529Z,27.30
2022-08-17T09:43:16.550Z,27.47
2022-08-17T09:45:54.559Z,27.54
2022-08-17T09:48:28.521Z,27.53
2022-08-17T09:51:18.205Z,27.77
2022-08-17T09:53:45.906Z,27.93
2022-08-17T09:56:46.220Z,27.85
2022-08-17T09:59:38.357Z,27.87
2022-08-17T10:02:38.165Z,27.98
2022-08-17T10:05:13.748Z,27.72
2022-08-17T10:07:46.766Z,27.64
2022-08-17T10:10:26.635Z,27.64
2022-08-17T10:13:06.729Z,27.49
2022-08-17T10:16:00.776Z,27.61
2022-08-17T10:18:53.197Z,28.02
2022-08-17T10:21:40.294Z,28.17
2022-08-17T10:24:36.234Z,28.45
2022-08-17T10:27:09.662Z,28.34
2022-08-17T10:29:49.213Z,28.28
2022-08-17T10:32:32.425Z,28.12
2022-08-17T10:35:34.208Z,28.11
2022-08-17T10:38:21.553Z,27.85
2022-08-17T10:40:54.891Z,27.91
2022-08-17T10:44:37.528Z,27.82
2022-08-17T10:46:59.526Z,27.60
2022-08-17T10:49:34.197Z,27.44
2022-08-17T10:52:05.275Z,27.30
2022-08-17T10:54:42.045Z,27.27
2022-08-17T10:57:31.714Z,27.36
2022-08-17T11:00:00.863Z,27.26
2022-08-17T11:02:54.183Z,27.46
2022-08-17T11:05:43.793Z,27.41
2022-08-17T11:08:17.513Z,27.28
2022-08-17T11:11:12.162Z,27.48
2022-08-17T11:13:46.172Z,27.51
2022-08-17T11:16:38.681Z,27.55
2022-08-17T11:19:31.010Z,27.63
2022-08-17T11:22:16.155Z,27.80
2022-08-17T11:24:48.070Z,28.26
2022-08-17T11:27:28.246Z,28.67
2022-08-17T11:30:01.470Z,28.84
2022-08-17T11:32:54.354Z,28.82
2022-08-17T11:35:22.377Z,28.49
2022-08-17T11:38:16.108Z,28.23
2022-08-17T11:41:02.884Z,27.96
2022-08-17T11:43:33.176Z,27.80
2022-08-17T11:46:11.176Z,27.51
2022-08-17T11:49:22.013Z,27.45
2022-08-17T11:51:55.155Z,27.59
2022-08-17T11:54:35.552Z,27.85
2022-08-17T11:57:25.655Z,28.00
2022-08-17T12:00:00.650Z,28.16
2022-08-17T12:02:35.132Z,28.32
2022-08-17T12:05:14.881Z,28.48
2022-08-17T12:07:45.433Z,28.71
2022-08-17T12:10:16.107Z,28.86
2022-08-17T12:12:45.515Z,29.01
2022-08-17T12:15:18.352Z,29.06
2022-08-17T12:17:53.854Z,29.17
2022-08-17T12:20:28.021Z,29.20
2022-08-17T12:23:05.065Z,29.30
2022-08-17T12:25:57.690Z,29.16
2022-08-17T12:28:36.800Z,28.80
2022-08-17T12:31:14.057Z,28.65
2022-08-17T12:33:46.067Z,28.50
2022-08-17T12:36:16.522Z,28.20
2022-08-17T12:38:51.696Z,27.71
2022-08-17T12:41:43.852Z,27.53
2022-08-17T12:44:21.739Z,27.20
2022-08-17T12:46:58.925Z,27.17
2022-08-17T12:49:28.302Z,27.47
2022-08-17T12:52:24.796Z,27.46
2022-08-17T12:55:02.051Z,27.56
2022-08-17T12:57:35.423Z,27.72
2022-08-17T13:00:17.872Z,27.82
2022-08-17T13:02:47.714Z,28.20
2022-08-17T13:05:39.628Z,28.42
2022-08-17T13:08:20.652Z,28.41
2022-08-17T13:11:04.229Z,28.34
2022-08-17T13:13:35.615Z,28.37
2022-08-17T13:16:19.014Z,28.40
2022-08-17T13:18:49.550Z,28.53
2022-08-17T13:21:19.707Z,28.52
2022-08-17T13:23:56.440Z,28.47
2022-08-17T13:26:42.898Z,28.59
2022-08-17T13:29:31.864Z,28.85
2022-08-17T13:32:11.617Z,28.90
2022-08-17T13:35:15.463Z,28.96
2022-08-17T13:37:37.718Z,28.80
2022-08-17T13:40:11.270Z,28.86
2022-08-17T13:42:54.213Z,29.00
2022-08-17T13:45:35.583Z,29.22
2022-08-17T13:48:14.627Z,29.31
2022-08-17T13:51:01.826Z,29.17
2022-08-17T13:53:40.129Z,29.14
2022-08-17T13:56:38.056Z,29.00
2022-08-17T13:59:07.397Z,28.88
2022-08-17T14:01:42.334Z,28.65
2022-08-17T14:04:16.757Z,28.36
2022-08-17T14:06:54.151Z,28.28
2022-08-17T14:09:25.029Z,28.22
2022-08-17T14:11:54.302Z,28.27
2022-08-17T14:14:23.418Z,28.24
2022-08-17T14:16:52.237Z,28.30
2022-08-17T14:19:22.103Z,28.51
2022-08-17T14:21:49.704Z,28.68
2022-08-17T14:24:24.997Z,28.72
2022-08-17T14:26:55.703Z,28.74
2022-08-17T14:29:25.443Z,28.76
2022-08-17T14:31:54.415Z,28.87
2022-08-17T14:34:23.561Z,28.80
2022-08-17T14:36:52.129Z,28.76
2022-08-17T14:39:20.448Z,28.61
2022-08-17T14:41:47.928Z,28.56
2022-08-17T14:44:15.804Z,28.49
2022-08-17T14:46:44.678Z,28.41
2022-08-17T14:49:13.326Z,28.38
2022-08-17T14:51:44.242Z,28.36
2022-08-17T14:54:33.354Z,28.36
2022-08-17T14:57:23.341Z,28.34
2022-08-17T14:59:54.920Z,28.41
2022-08-17T15:02:29.341Z,28.38
2022-08-17T15:05:05.614Z,28.39
2022-08-17T15:07:33.177Z,28.35
2022-08-17T15:10:02.475Z,28.29
2022-08-17T15:12:33.799Z,28.15
2022-08-17T15:15:05.199Z,28.11
2022-08-17T15:17:44.644Z,28.17
2022-08-17T15:20:16.661Z,28.16
2022-08-17T15:22:45.270Z,28.14
2022-08-17T15:25:13.355Z,28.18
2022-08-17T15:27:41.476Z,28.31
2022-08-17T15:30:10.374Z,28.29
2022-08-17T15:32:41.010Z,28.34
2022-08-17T15:35:18.931Z,28.41
2022-08-17T15:37:54.393Z,28.39
2022-08-17T15:40:22.019Z,28.32
2022-08-17T15:42:49.230Z,28.14
2022-08-17T15:45:22.704Z,28.26
2022-08-17T15:47:50.701Z,28.13
2022-08-17T15:50:18.380Z,28.11
2022-08-17T15:52:47.717Z,28.16
2022-08-17T15:55:17.172Z,28.26
2022-08-17T15:57:46.195Z,28.33
2022-08-17T16:00:14.083Z,28.26
2022-08-17T16:03:46.107Z,28.35
2022-08-17T16:05:31.246Z,28.02
2022-08-17T16:07:59.977Z,27.83
2022-08-17T16:10:35.151Z,27.56
2022-08-17T16:13:04.627Z,27.35
2022-08-17T16:15:32.330Z,27.22
2022-08-17T16:17:59.809Z,27.22
2022-08-17T16:20:27.671Z,27.19
2022-08-17T16:22:55.483Z,27.11
2022-08-17T16:25:51.913Z,27.06
2022-08-17T16:28:17.964Z,27.10
2022-08-17T16:30:45.709Z,27.06
2022-08-17T16:33:13.721Z,27.05
2022-08-17T16:35:42.180Z,27.00
2022-08-17T16:38:09.785Z,26.95
2022-08-17T16:40:37.398Z,26.93
2022-08-17T16:43:10.622Z,26.93
2022-08-17T16:45:40.724Z,26.92
2022-08-17T16:48:09.533Z,26.84
2022-08-17T16:50:37.401Z,26.79
2022-08-17T16:53:08.375Z,26.65
2022-08-17T16:55:36.402Z,26.66
2022-08-17T16:58:06.979Z,26.53
2022-08-17T17:00:34.938Z,26.50
2022-08-17T17:03:19.852Z,26.45
2022-08-17T17:06:07.228Z,26.39
2022-08-17T17:09:00.616Z,26.31
2022-08-17T17:11:33.768Z,26.22
2022-08-17T17:14:02.810Z,26.14
2022-08-17T17:16:33.030Z,26.03
2022-08-17T17:19:34.889Z,26.00
2022-08-17T17:22:22.368Z,25.90
2022-08-17T17:25:11.270Z,25.85
2022-08-17T17:27:59.029Z,25.76
2022-08-17T17:30:27.253Z,25.70
2022-08-17T17:32:59.806Z,25.64
2022-08-17T17:35:43.707Z,25.55
2022-08-17T17:38:17.109Z,25.42
2022-08-17T17:40:47.631Z,25.29
2022-08-17T17:43:38.289Z,25.19
2022-08-17T17:46:28.406Z,25.09
2022-08-17T17:48:57.963Z,24.99
2022-08-17T17:51:54.969Z,24.84
2022-08-17T17:54:37.858Z,24.72
2022-08-17T17:57:17.932Z,24.72
2022-08-17T17:59:45.597Z,24.65
2022-08-17T18:02:12.847Z,24.46
2022-08-17T18:04:50.063Z,24.21
2022-08-17T18:07:46.661Z,24.20
2022-08-17T18:10:55.919Z,24.05
2022-08-17T18:13:33.704Z,24.01
2022-08-17T18:16:02.596Z,23.93
2022-08-17T18:18:38.344Z,23.86
2022-08-17T18:21:16.612Z,23.83
2022-08-17T18:24:04.150Z,23.84
2022-08-17T18:26:39.491Z,23.85
2022-08-17T18:29:36.838Z,23.86
2022-08-17T18:32:24.921Z,23.88
2022-08-17T18:35:11.322Z,23.94
2022-08-17T18:37:46.185Z,23.91
2022-08-17T18:40:17.086Z,23.85
2022-08-17T18:43:05.155Z,23.76
2022-08-17T18:45:43.173Z,23.78
2022-08-17T18:48:29.313Z,23.65
2022-08-17T18:51:00.362Z,23.60
2022-08-17T18:53:33.381Z,23.55
2022-08-17T18:56:20.901Z,23.42
2022-08-17T18:59:04.597Z,23.34
2022-08-17T19:01:53.277Z,23.29
2022-08-17T19:04:34.126Z,23.18
2022-08-17T19:07:23.360Z,23.08
2022-08-17T19:10:01.819Z,23.02
2022-08-17T19:12:35.347Z,22.93
2022-08-17T19:15:03.229Z,22.89
2022-08-17T19:17:37.481Z,22.80
2022-08-17T19:20:15.471Z,22.72
2022-08-17T19:22:45.979Z,22.64
2022-08-17T19:25:18.334Z,22.62
2022-08-17T19:28:00.984Z,22.59
2022-08-17T19:30:30.828Z,22.55
2022-08-17T19:32:58.711Z,22.43
2022-08-17T19:35:36.059Z,22.37
2022-08-17T19:38:12.826Z,22.31
2022-08-17T19:40:54.964Z,22.23
2022-08-17T19:43:41.395Z,22.21
2022-08-17T19:46:30.418Z,22.22
2022-08-17T19:49:41.838Z,22.13
2022-08-17T19:52:48.140Z,22.02
2022-08-17T19:55:22.384Z,21.97
2022-08-17T19:57:55.877Z,21.89
2022-08-17T20:00:23.928Z,21.79
2022-08-17T20:03:16.393Z,21.74
2022-08-17T20:06:11.544Z,21.67
2022-08-17T20:08:40.119Z,21.57
2022-08-17T20:11:17.615Z,21.50
2022-08-17T20:14:09.550Z,21.47
2022-08-17T20:16:37.199Z,21.43
2022-08-17T20:19:19.639Z,21.35
2022-08-17T20:22:01.245Z,21.27
2022-08-17T20:24:37.583Z,21.26
2022-08-17T20:27:19.120Z,21.23
2022-08-17T20:30:11.970Z,21.26
2022-08-17T20:32:56.906Z,21.26
2022-08-17T20:35:32.664Z,21.29
2022-08-17T20:38:02.317Z,21.29
2022-08-17T20:40:39.195Z,21.30
2022-08-17T20:43:33.293Z,21.31
2022-08-17T20:46:18.500Z,21.27
2022-08-17T20:48:49.072Z,21.20
2022-08-17T20:51:39.692Z,21.20
2022-08-17T20:54:27.594Z,21.10
2022-08-17T20:56:57.910Z,21.07
2022-08-17T20:59:26.036Z,21.03
2022-08-17T21:02:12.390Z,21.00
2022-08-17T21:05:00.341Z,20.93
2022-08-17T21:07:42.792Z,20.93
2022-08-17T21:10:23.777Z,20.92
2022-08-17T21:13:13.397Z,20.92
2022-08-17T21:15:44.291Z,20.92
2022-08-17T21:18:18.220Z,20.92
2022-08-17T21:21:04.780Z,20.89
2022-08-17T21:23:32.089Z,20.89
2022-08-17T21:26:26.730Z,20.90
2022-08-17T21:29:29.586Z,20.93
2022-08-17T21:32:03.463Z,20.95
2022-08-17T21:34:33.284Z,20.98
2022-08-17T21:37:23.466Z,20.99
2022-08-17T21:39:58.176Z,20.90
2022-08-17T21:42:34.160Z,20.90
2022-08-17T21:45:18.682Z,20.91
2022-08-17T21:47:52.173Z,20.89
2022-08-17T21:50:23.475Z,20.78
2022-08-17T21:53:01.189Z,20.77
2022-08-17T21:55:30.379Z,20.78
2022-08-17T21:58:14.860Z,20.85
2022-08-17T22:00:46.331Z,20.85
2022-08-17T22:03:24.233Z,20.84
2022-08-17T22:05:51.736Z,20.85
2022-08-17T22:08:22.539Z,20.82
2022-08-17T22:10:51.861Z,20.77
2022-08-17T22:13:24.335Z,20.66
2022-08-17T22:16:28.990Z,20.64
2022-08-17T22:18:58.480Z,20.59
2022-08-17T22:21:26.850Z,20.50
2022-08-17T22:24:22.710Z,20.49
2022-08-17T22:27:11.082Z,20.50
2022-08-17T22:30:00.617Z,20.42
2022-08-17T22:32:48.417Z,20.35
2022-08-17T22:35:38.641Z,20.30
2022-08-17T22:38:25.110Z,20.20
2022-08-17T22:40:55.156Z,20.15
2022-08-17T22:43:28.684Z,20.09
2022-08-17T22:45:58.626Z,20.07
2022-08-17T22:48:29.064Z,20.02
2022-08-17T22:51:13.756Z,19.96
2022-08-17T22:54:10.418Z,19.84
2022-08-17T22:56:57.138Z,19.80
2022-08-17T22:59:45.777Z,19.75
2022-08-17T23:02:19.591Z,19.74
2022-08-17T23:04:53.331Z,19.72
2022-08-17T23:07:21.623Z,19.73
2022-08-17T23:09:49.587Z,19.71
2022-08-17T23:12:22.863Z,19.70
2022-08-17T23:15:00.915Z,19.74
2022-08-17T23:17:35.098Z,19.77
2022-08-17T23:20:08.580Z,19.71
2022-08-17T23:22:38.140Z,19.69
2022-08-17T23:25:32.086Z,19.63
2022-08-17T23:28:01.663Z,19.60
2022-08-17T23:30:31.691Z,19.56
2022-08-17T23:33:01.250Z,19.54
2022-08-17T23:35:39.167Z,19.51
2022-08-17T23:38:07.628Z,19.44
2022-08-17T23:40:35.094Z,19.39
2022-08-17T23:45:47.495Z,19.30
2022-08-17T23:48:15.006Z,19.30
2022-08-17T23:50:56.506Z,19.30
2022-08-17T23:53:26.036Z,19.27
2022-08-17T23:56:09.710Z,19.22
2022-08-17T23:58:42.773Z,19.17
